Main page
METAR-TAF:

METAR-TAF

Airports :

Aigen im Ennstal, Austria

latitude: 47-32N, longitude: 014-08E, elevation: 638 m

METAR: missing

Time: 01:58 (23:58 UTC)

Forecast

The report was made 15 hours and 43 minutes ago, at 08:15 UTC
Forecast valid from 20 at 09 UTC to 20 at 18 UTC
Wind 3 kt from variable directions
Visibility 10 km or more
Few clouds at a height of 6000 ft
Becoming
from 20 at 09 UTC to 20 at 11 UTC
Wind 7 kt from the Northeast
Temporary
from 20 at 12 UTC to 20 at 18 UTC
Wind 8 kt from variable directions
Few clouds at a height of 6000 ft, Towering cumulus.
Scattered clouds at a height of 7000 ft

TAF: LOXA 200815Z 2009/2018 VRB03KT 9999 FEW060 BECMG 2009/2011 04007KT TEMPO 2012/2018 VRB08KT FEW060TCU SCT070

Weather observations and forecasts of more than 4000 airports (METAR and TAF reports).

The available stations are represented by yellow and red dots on the map.

Hover mouse over dot to see the name of the station.

Then click to see weather observations and forecasts.

To change the map : click on the green buttons with a black cross to zoom in, on the green button with a dash to zoom out, or on the green arrows for adjacent maps.


METAR-TAF: